createdAt,value
2018-01-24T00:02:00.952Z,76.55
2018-01-24T00:04:29.198Z,76.17
2018-01-24T00:06:57.486Z,76.38
2018-01-24T00:09:25.743Z,77.31
2018-01-24T00:11:53.985Z,76.99
2018-01-24T00:14:22.271Z,77.31
2018-01-24T00:16:52.071Z,76.89
2018-01-24T00:19:20.347Z,77.02
2018-01-24T00:21:48.655Z,77.50
2018-01-24T00:24:16.959Z,77.60
2018-01-24T00:26:45.192Z,77.41
2018-01-24T00:29:13.444Z,77.68
2018-01-24T00:31:42.447Z,77.62
2018-01-24T00:34:11.473Z,77.21
2018-01-24T00:36:39.715Z,77.05
2018-01-24T00:39:07.984Z,76.70
2018-01-24T00:41:36.256Z,77.32
2018-01-24T00:44:04.526Z,76.99
2018-01-24T00:46:32.775Z,76.92
2018-01-24T00:49:01.031Z,76.46
2018-01-24T00:51:30.071Z,76.47
2018-01-24T00:53:58.338Z,77.46
2018-01-24T00:56:26.575Z,77.67
2018-01-24T00:58:55.621Z,76.80
2018-01-24T01:01:23.871Z,77.42
2018-01-24T01:03:52.905Z,77.63
2018-01-24T01:06:21.184Z,76.55
2018-01-24T01:08:49.558Z,76.30
2018-01-24T01:11:17.873Z,76.61
2018-01-24T01:13:46.123Z,76.76
2018-01-24T01:16:15.135Z,76.61
2018-01-24T01:18:44.162Z,76.93
2018-01-24T01:21:12.446Z,76.77
2018-01-24T01:23:40.690Z,76.56
2018-01-24T01:26:08.939Z,76.98
2018-01-24T01:28:37.220Z,77.45
2018-01-24T01:31:05.479Z,77.81
2018-01-24T01:33:34.530Z,77.54
2018-01-24T01:36:02.771Z,77.67
2018-01-24T01:38:31.040Z,77.97
2018-01-24T01:40:59.289Z,77.67
2018-01-24T01:43:27.530Z,78.02
2018-01-24T01:45:55.790Z,78.12
2018-01-24T01:48:32.712Z,77.94
2018-01-24T01:51:00.987Z,78.46
2018-01-24T01:53:29.234Z,78.00
2018-01-24T01:55:57.500Z,78.36
2018-01-24T01:58:26.520Z,78.50
2018-01-24T02:00:54.785Z,78.67
2018-01-24T02:03:23.065Z,79.27
2018-01-24T02:05:51.391Z,79.51
2018-01-24T02:08:20.430Z,79.95
2018-01-24T02:10:48.742Z,79.46
2018-01-24T02:13:17.016Z,79.74
2018-01-24T02:15:45.353Z,80.75
2018-01-24T02:18:13.550Z,81.30
2018-01-24T02:20:42.570Z,81.25
2018-01-24T02:23:10.814Z,81.59
2018-01-24T02:25:39.083Z,81.52
2018-01-24T02:28:07.358Z,81.91
2018-01-24T02:30:35.656Z,82.11
2018-01-24T02:33:03.896Z,82.72
2018-01-24T02:35:32.924Z,83.22
2018-01-24T02:38:01.183Z,83.15
2018-01-24T02:40:30.214Z,83.63
2018-01-24T02:42:58.451Z,83.30
2018-01-24T02:45:26.716Z,83.56
2018-01-24T02:47:54.972Z,83.49
2018-01-24T02:50:23.242Z,83.67
2018-01-24T02:52:52.334Z,83.68
2018-01-24T02:55:20.630Z,83.47
2018-01-24T02:57:48.937Z,83.36
2018-01-24T03:00:17.985Z,83.16
2018-01-24T03:02:46.243Z,83.40
2018-01-24T03:05:14.523Z,83.54
2018-01-24T03:07:43.539Z,83.49
2018-01-24T03:10:11.799Z,83.29
2018-01-24T03:12:41.173Z,83.36
2018-01-24T03:15:09.428Z,82.93
2018-01-24T03:17:38.468Z,83.53
2018-01-24T03:20:06.775Z,84.08
2018-01-24T03:22:35.042Z,84.05
2018-01-24T03:25:03.285Z,84.09
2018-01-24T03:27:32.315Z,84.25
2018-01-24T03:30:00.555Z,84.57
2018-01-24T03:32:28.824Z,84.42
2018-01-24T03:34:57.067Z,84.41
2018-01-24T03:37:26.094Z,84.82
2018-01-24T03:39:54.332Z,84.87
2018-01-24T03:42:22.639Z,84.71
2018-01-24T03:44:50.952Z,84.89
2018-01-24T03:47:19.327Z,85.53
2018-01-24T03:49:48.372Z,85.58
2018-01-24T03:52:16.658Z,86.33
2018-01-24T03:54:44.912Z,86.59
2018-01-24T03:57:13.936Z,86.92
2018-01-24T03:59:42.182Z,87.32
2018-01-24T04:02:10.439Z,87.57
2018-01-24T04:04:38.679Z,87.81
2018-01-24T04:07:07.727Z,88.68
2018-01-24T04:09:35.984Z,88.29
2018-01-24T04:12:05.065Z,88.25
2018-01-24T04:14:33.303Z,88.41
2018-01-24T04:17:01.563Z,88.39
2018-01-24T04:19:30.583Z,88.60
2018-01-24T04:21:59.600Z,88.79
2018-01-24T04:24:27.859Z,88.25
2018-01-24T04:26:56.119Z,88.75
2018-01-24T04:29:24.368Z,89.10
2018-01-24T04:31:52.723Z,89.39
2018-01-24T04:34:21.069Z,89.73
2018-01-24T04:36:49.355Z,89.91
2018-01-24T04:39:17.733Z,89.90
2018-01-24T04:41:46.004Z,90.14
2018-01-24T04:44:15.000Z,90.28
2018-01-24T04:46:44.015Z,90.33
2018-01-24T04:49:13.331Z,90.13
2018-01-24T04:51:42.626Z,90.09
2018-01-24T04:54:10.962Z,90.54
2018-01-24T04:56:39.970Z,90.99
2018-01-24T04:59:08.271Z,91.29
2018-01-24T05:01:36.861Z,90.84
2018-01-24T05:04:05.608Z,91.08
2018-01-24T05:06:33.916Z,91.29
2018-01-24T05:09:03.019Z,91.70
2018-01-24T05:11:32.354Z,91.92
2018-01-24T05:14:00.811Z,91.63
2018-01-24T05:16:29.059Z,91.45
2018-01-24T05:18:57.676Z,92.03
2018-01-24T05:21:32.432Z,92.32
2018-01-24T05:24:01.395Z,91.87
2018-01-24T05:26:30.055Z,92.22
2018-01-24T05:28:59.129Z,92.39
2018-01-24T05:31:27.555Z,92.10
2018-01-24T05:33:56.617Z,92.38
2018-01-24T05:36:25.083Z,92.29
2018-01-24T05:38:53.350Z,92.21
2018-01-24T05:41:22.413Z,92.02
2018-01-24T05:43:50.967Z,92.33
2018-01-24T05:46:20.242Z,92.42
2018-01-24T05:48:48.469Z,92.27
2018-01-24T05:51:16.706Z,92.71
2018-01-24T05:53:45.271Z,93.05
2018-01-24T05:56:13.549Z,93.75
2018-01-24T05:58:42.014Z,93.18
2018-01-24T06:01:11.514Z,93.35
2018-01-24T06:03:40.650Z,93.75
2018-01-24T06:06:10.077Z,93.60
2018-01-24T06:08:38.850Z,93.69
2018-01-24T06:11:07.474Z,93.89
2018-01-24T06:13:35.788Z,94.11
2018-01-24T06:16:04.089Z,93.85
2018-01-24T06:18:33.391Z,94.87
2018-01-24T06:21:01.973Z,95.01
2018-01-24T06:23:30.491Z,95.07
2018-01-24T06:25:58.938Z,94.78
2018-01-24T06:28:28.044Z,96.70
2018-01-24T06:30:56.585Z,94.73
2018-01-24T06:33:24.884Z,94.78
2018-01-24T06:35:53.763Z,94.91
2018-01-24T06:38:22.121Z,96.09
2018-01-24T06:40:51.167Z,96.00
2018-01-24T06:43:19.656Z,96.20
2018-01-24T06:45:47.931Z,95.78
2018-01-24T06:48:16.436Z,95.75
2018-01-24T06:50:44.977Z,95.71
2018-01-24T06:53:13.471Z,95.06
2018-01-24T06:55:41.926Z,95.48
2018-01-24T06:58:10.200Z,95.70
2018-01-24T07:00:38.792Z,95.71
2018-01-24T07:03:07.298Z,95.83
2018-01-24T07:05:36.314Z,96.00
2018-01-24T07:08:04.770Z,94.88
2018-01-24T07:10:33.068Z,95.21
2018-01-24T07:13:19.745Z,95.48
2018-01-24T07:15:48.024Z,92.79
2018-01-24T07:18:16.393Z,93.95
2018-01-24T07:20:44.770Z,94.19
2018-01-24T07:23:13.232Z,94.76
2018-01-24T07:25:41.566Z,94.71
2018-01-24T07:28:10.181Z,94.69
2018-01-24T07:30:38.492Z,94.39
2018-01-24T07:33:06.962Z,94.48
2018-01-24T07:35:35.231Z,94.26
2018-01-24T07:38:03.800Z,94.15
2018-01-24T07:40:33.520Z,93.71
2018-01-24T07:43:02.548Z,93.83
2018-01-24T07:45:31.252Z,93.48
2018-01-24T07:47:59.987Z,93.39
2018-01-24T07:50:28.770Z,93.47
2018-01-24T07:52:57.402Z,93.32
2018-01-24T07:55:25.743Z,92.99
2018-01-24T07:57:54.036Z,92.91
2018-01-24T08:00:22.427Z,92.96
2018-01-24T08:02:50.787Z,92.82
2018-01-24T08:05:20.029Z,93.03
2018-01-24T08:07:48.311Z,92.29
2018-01-24T08:10:16.903Z,92.36
2018-01-24T08:12:45.471Z,91.56
2018-01-24T08:15:14.780Z,91.02
2018-01-24T08:17:43.511Z,91.51
2018-01-24T08:20:12.026Z,91.05
2018-01-24T08:22:41.750Z,90.99
2018-01-24T08:25:10.143Z,90.00
2018-01-24T08:27:38.924Z,89.86
2018-01-24T08:30:07.225Z,89.01
2018-01-24T08:32:35.905Z,89.20
2018-01-24T08:35:04.159Z,88.87
2018-01-24T08:37:32.806Z,88.50
2018-01-24T08:40:01.253Z,88.21
2018-01-24T08:42:29.566Z,88.09
2018-01-24T08:44:59.014Z,87.79
2018-01-24T08:47:27.746Z,87.76
2018-01-24T08:49:56.014Z,87.84
2018-01-24T08:52:24.746Z,87.18
2018-01-24T08:54:52.994Z,86.54
2018-01-24T08:57:21.464Z,86.14
2018-01-24T09:00:13.208Z,85.56
2018-01-24T09:03:05.184Z,85.80
2018-01-24T09:05:56.698Z,84.61
2018-01-24T13:32:24.125Z,63.49
2018-01-24T13:34:52.418Z,63.83
2018-01-24T13:37:22.252Z,64.54
2018-01-24T13:39:50.596Z,63.79
2018-01-24T13:42:18.872Z,64.39
2018-01-24T13:44:47.164Z,65.46
2018-01-24T13:47:15.460Z,64.64
2018-01-24T13:49:43.749Z,64.62
2018-01-24T13:52:12.106Z,64.51
2018-01-24T13:54:41.218Z,64.87
2018-01-24T13:57:10.283Z,65.89
2018-01-24T13:59:40.552Z,65.20
2018-01-24T14:02:09.058Z,64.95
2018-01-24T14:04:38.350Z,65.54
2018-01-24T14:07:07.809Z,65.18
2018-01-24T14:09:37.348Z,66.04
2018-01-24T14:12:05.952Z,65.60
2018-01-24T14:14:34.485Z,65.56
2018-01-24T14:17:03.992Z,66.24
2018-01-24T14:19:32.689Z,65.58
2018-01-24T14:22:01.127Z,66.86
2018-01-24T14:24:34.148Z,66.45
2018-01-24T14:27:04.129Z,67.07
2018-01-24T14:29:33.613Z,67.32
2018-01-24T14:32:03.086Z,68.00
2018-01-24T14:34:31.713Z,67.53
2018-01-24T14:37:01.108Z,67.25
2018-01-24T14:39:29.514Z,68.05
2018-01-24T14:41:58.197Z,68.57
2018-01-24T14:44:26.677Z,68.30
2018-01-24T14:46:56.047Z,69.36
2018-01-24T14:49:24.639Z,69.91
2018-01-24T14:51:54.443Z,69.76
2018-01-24T14:54:23.174Z,69.79
2018-01-24T14:56:52.558Z,72.51
2018-01-24T14:59:21.420Z,71.34
2018-01-24T15:01:49.772Z,75.33
2018-01-24T15:04:18.380Z,74.35
2018-01-24T15:06:46.804Z,72.35
2018-01-24T15:09:16.484Z,72.23
2018-01-24T15:11:45.043Z,73.69
2018-01-24T15:14:13.755Z,74.10
2018-01-24T15:16:42.499Z,76.17
2018-01-24T15:19:11.268Z,74.08
2018-01-24T15:21:39.805Z,75.07
2018-01-24T15:24:08.208Z,74.62
2018-01-24T15:26:36.551Z,77.21
2018-01-24T15:29:04.850Z,77.93
2018-01-24T15:31:33.618Z,78.66
2018-01-24T15:34:02.128Z,74.34
2018-01-24T15:36:31.727Z,78.27
2018-01-24T15:39:00.031Z,77.50
2018-01-24T15:41:28.968Z,75.28
2018-01-24T15:43:57.700Z,76.48
2018-01-24T15:46:26.251Z,76.35
2018-01-24T15:48:55.394Z,76.97
2018-01-24T15:51:24.094Z,80.12
2018-01-24T15:53:52.916Z,77.47
2018-01-24T15:56:21.561Z,81.85
2018-01-24T15:58:49.970Z,80.27
2018-01-24T16:01:19.645Z,80.04
2018-01-24T16:03:48.494Z,81.87
2018-01-24T16:06:18.511Z,75.93
2018-01-24T16:08:48.305Z,78.17
2018-01-24T16:11:16.993Z,80.46
2018-01-24T16:13:46.087Z,80.94
2018-01-24T16:16:14.601Z,81.71
2018-01-24T16:18:43.300Z,81.50
2018-01-24T16:21:11.736Z,80.70
2018-01-24T16:23:40.559Z,80.73
2018-01-24T16:26:10.915Z,81.32
2018-01-24T16:28:39.547Z,81.77
2018-01-24T16:31:08.013Z,82.40
2018-01-24T16:33:36.938Z,82.35
2018-01-24T16:36:05.660Z,82.25
2018-01-24T16:38:34.402Z,82.15
2018-01-24T16:41:02.846Z,81.87
2018-01-24T16:43:31.499Z,81.30
2018-01-24T16:45:59.868Z,80.62
2018-01-24T16:48:31.397Z,81.05
2018-01-24T16:50:59.862Z,80.60
2018-01-24T16:53:28.450Z,79.88
2018-01-24T16:55:56.923Z,80.30
2018-01-24T16:58:25.471Z,79.51
2018-01-24T17:00:54.061Z,79.47
2018-01-24T17:03:22.829Z,79.33
2018-01-24T17:05:51.423Z,78.63
2018-01-24T17:08:19.997Z,78.51
2018-01-24T17:10:48.588Z,78.86
2018-01-24T17:13:16.983Z,77.44
2018-01-24T17:15:46.134Z,77.68
2018-01-24T17:18:14.545Z,78.09
2018-01-24T17:20:43.022Z,78.59
2018-01-24T17:23:11.771Z,78.56
2018-01-24T17:25:40.213Z,80.05
2018-01-24T17:28:09.410Z,76.23
2018-01-24T17:30:37.800Z,77.43
2018-01-24T17:33:06.895Z,78.13
2018-01-24T17:35:35.479Z,78.81
2018-01-24T17:38:04.262Z,79.16
2018-01-24T17:40:33.975Z,78.20
2018-01-24T17:43:02.390Z,78.46
2018-01-24T17:45:31.640Z,79.15
2018-01-24T17:48:00.137Z,78.94
2018-01-24T17:50:28.549Z,80.28
2018-01-24T17:52:57.206Z,80.67
2018-01-24T17:55:26.641Z,80.86
2018-01-24T17:57:55.238Z,79.95
2018-01-24T18:00:23.575Z,80.93
2018-01-24T18:02:52.454Z,80.60
2018-01-24T18:05:20.758Z,80.26
2018-01-24T18:07:49.076Z,81.03
2018-01-24T18:10:17.414Z,79.24
2018-01-24T18:12:45.748Z,78.77
2018-01-24T18:15:14.867Z,78.85
2018-01-24T18:17:44.055Z,78.92
2018-01-24T18:20:12.382Z,78.99
2018-01-24T18:22:40.712Z,75.56
2018-01-24T18:25:09.047Z,76.78
2018-01-24T18:27:38.185Z,75.76
2018-01-24T18:30:06.527Z,75.27
2018-01-24T18:32:35.639Z,72.95
2018-01-24T18:35:03.986Z,73.24
2018-01-24T18:37:32.295Z,71.37
2018-01-24T18:40:00.644Z,70.39
2018-01-24T18:42:28.972Z,70.58
2018-01-24T18:44:58.542Z,69.94
2018-01-24T18:47:27.639Z,69.05
2018-01-24T18:49:57.056Z,69.70
2018-01-24T18:52:25.432Z,69.27
2018-01-24T18:54:53.691Z,69.07
2018-01-24T18:57:22.018Z,68.25
2018-01-24T18:59:50.359Z,71.53
2018-01-24T19:02:19.554Z,69.54
2018-01-24T19:04:47.908Z,68.09
2018-01-24T19:07:17.000Z,68.14
2018-01-24T19:09:45.297Z,67.92
2018-01-24T19:12:13.701Z,67.67
2018-01-24T19:14:42.826Z,67.81
2018-01-24T19:17:11.890Z,67.39
2018-01-24T19:19:40.175Z,68.43
2018-01-24T19:22:08.493Z,67.23
2018-01-24T19:24:37.615Z,67.47
2018-01-24T19:27:06.659Z,68.75
2018-01-24T19:29:34.948Z,68.49
2018-01-24T19:32:03.249Z,67.90
2018-01-24T19:34:31.582Z,67.63
2018-01-24T19:37:00.677Z,68.62
2018-01-24T19:39:29.793Z,69.68
2018-01-24T19:41:58.092Z,68.26
2018-01-24T19:44:27.495Z,67.75
2018-01-24T19:46:56.585Z,68.54
2018-01-24T19:49:25.722Z,69.43
2018-01-24T19:51:54.749Z,67.71
2018-01-24T19:54:23.083Z,68.33
2018-01-24T19:56:51.392Z,67.64
2018-01-24T19:59:19.664Z,67.64
2018-01-24T20:01:48.804Z,68.90
2018-01-24T20:04:17.949Z,68.52
2018-01-24T20:06:46.262Z,69.05
2018-01-24T20:09:14.542Z,70.19
2018-01-24T20:11:42.890Z,69.72
2018-01-24T20:14:11.207Z,69.92
2018-01-24T20:16:39.515Z,69.47
2018-01-24T20:19:07.832Z,70.18
2018-01-24T20:21:36.182Z,69.74
2018-01-24T20:24:04.545Z,69.18
2018-01-24T20:26:33.791Z,69.26
2018-01-24T20:29:02.162Z,70.06
2018-01-24T20:31:30.523Z,68.37
2018-01-24T20:33:58.922Z,69.16
2018-01-24T20:36:27.230Z,69.95
2018-01-24T20:38:55.500Z,70.32
2018-01-24T20:41:23.760Z,69.38
2018-01-24T20:43:52.011Z,68.87
2018-01-24T20:46:20.333Z,69.27
2018-01-24T20:48:49.100Z,68.77
2018-01-24T20:51:17.565Z,69.78
2018-01-24T20:53:45.997Z,70.18
2018-01-24T20:56:14.471Z,70.39
2018-01-24T20:58:42.719Z,70.53
2018-01-24T21:01:11.771Z,69.50
2018-01-24T21:03:40.916Z,70.41
2018-01-24T21:06:09.192Z,70.44
2018-01-24T21:08:37.452Z,70.58
2018-01-24T21:11:05.838Z,69.51
2018-01-24T21:13:34.191Z,69.98
2018-01-24T21:16:03.253Z,70.02
2018-01-24T21:18:31.559Z,70.64
2018-01-24T21:20:59.885Z,69.79
2018-01-24T21:23:28.959Z,70.11
2018-01-24T21:25:57.284Z,69.31
2018-01-24T21:28:43.161Z,70.26
2018-01-24T21:31:29.352Z,70.34
2018-01-24T21:34:15.290Z,70.19
2018-01-24T21:36:58.428Z,70.47
2018-01-24T21:39:27.431Z,69.70
2018-01-24T21:41:56.464Z,70.07
2018-01-24T21:44:24.763Z,69.71
2018-01-24T21:46:53.076Z,69.60
2018-01-24T21:49:21.319Z,69.51
2018-01-24T21:51:50.428Z,69.36
2018-01-24T21:54:19.449Z,70.15
2018-01-24T21:56:47.793Z,70.17
2018-01-24T21:59:16.095Z,70.46
2018-01-24T22:01:44.430Z,70.22
2018-01-24T22:04:12.698Z,70.57
2018-01-24T22:06:41.729Z,70.28
2018-01-24T22:09:10.748Z,70.29
2018-01-24T22:11:39.053Z,69.81
2018-01-24T22:14:07.307Z,70.09
2018-01-24T22:16:35.574Z,69.75
2018-01-24T22:19:04.616Z,68.81
2018-01-24T22:21:33.128Z,69.04
2018-01-24T22:24:01.388Z,69.07
2018-01-24T22:26:29.668Z,69.14
2018-01-24T22:28:57.908Z,68.98
2018-01-24T22:31:26.178Z,68.52
2018-01-24T22:33:54.435Z,68.03
2018-01-24T22:36:22.715Z,67.99
2018-01-24T22:38:51.740Z,68.16
2018-01-24T22:41:20.776Z,68.21
2018-01-24T22:43:49.049Z,68.39
2018-01-24T22:46:17.346Z,68.57
2018-01-24T22:48:45.617Z,68.72
2018-01-24T22:51:13.939Z,68.38
2018-01-24T22:53:42.201Z,68.09
2018-01-24T22:56:10.491Z,68.36
2018-01-24T22:58:38.806Z,68.45
2018-01-24T23:01:07.049Z,68.34
2018-01-24T23:03:35.313Z,67.67
2018-01-24T23:06:03.570Z,67.46
2018-01-24T23:08:31.835Z,67.85
2018-01-24T23:11:00.079Z,67.25
2018-01-24T23:13:29.128Z,66.58
2018-01-24T23:15:57.364Z,67.24
2018-01-24T23:18:26.400Z,67.50
2018-01-24T23:20:54.647Z,67.09
2018-01-24T23:23:22.910Z,67.04
2018-01-24T23:25:51.151Z,66.99
2018-01-24T23:28:20.179Z,67.40
2018-01-24T23:30:48.468Z,67.59
2018-01-24T23:33:16.762Z,67.05
2018-01-24T23:35:45.040Z,67.92
2018-01-24T23:38:13.333Z,68.29
2018-01-24T23:40:41.579Z,69.67
2018-01-24T23:43:09.852Z,69.92
2018-01-24T23:45:38.122Z,69.70
2018-01-24T23:48:06.391Z,69.53
2018-01-24T23:50:34.669Z,69.99
2018-01-24T23:53:03.699Z,69.64
2018-01-24T23:55:31.947Z,69.70
2018-01-24T23:58:00.231Z,70.97
